Sweet Brier, California
Current Conditions -  °F | °C
As of 1:56 AM on Thursday 29 Jan 2015 (Local Time) from KMHS Reporting Station
Clear Clear  
Wind Chill: 32°   Ceiling: Unl
Heat Index: 32°   Visibility: 8mi
Dew Point: 29°   Wind: 3mph
Humidity: 88%   Direction: 330°NNW
Pressure: 30.27"   Gusts: NA
Location:  41.1386°N, 122.317°W
Report Text: KMHS 290956Z AUTO 33003KT 8SM CLR 00/M02 A3027 RMK AO2 SLP271 T00001017
Loading
Personal Weather Stations






























Interactive Weather Map New forecast layout! Learn more

10-Day Weather Forecast

Advertisements
Track Severe Weather on mobile